Airfield :
LOGIN :

Register | Disclaimer

   EN    FR    IT 

 










Legend :    VFR   Marginal VFR   IFR   Intensive IFR   Very Intensive IFR
Visi :
Ceiling :
>= 8 km
>= 3000ft
5 to 8 km
1000 to 3000 ft
1500m to 5 km
500 to 1000 ft
800 to 1500m
200 to 500 ft
< 800m
< 200 ft
Symbols :   Thunderstorms  Fog  Heavy snow  Heavy precipitations  Wind > 20 kt
SIGMETs :     Misc.  Thunderstorms  Icing  Turbulence  Mountain Waves  Volcanic Ashes







- Airport Elevation : 187 ft


ETNW - Wunstorf AB

CURRENT METAR :
  • 260120Z AUTO 29008KT 5000 // ////// 14/08 Q1008 ///

EXPIRED METARs :
  • 260020Z AUTO 29011KT 5000 // ////// 14/08 Q1008 ///
  • 252320Z AUTO 27012KT 5000 // ////// 15/08 Q1008 ///

TAF TAF ETNW
Valid from the 25 at 23:00 until the 26 at 23:00 UTC


252220Z 2523/2623 09006KT 9999 NSW BKN160
BECMG 2600/2602 26008KT 9999 NSW SCT100 BKN120
TEMPO 2605/2621 27012G22KT 7000 -RA BKN015 BKN080 CANCEL BY ETGL
No reported NOTAMs for that airfield.



MET'MAP, your aeronautical weather chart ! - Copyright ORBIFLY December 2007 - Disclaimer

ORBIFLY MET'MAP TEAM :

Programming & Development : Alexandra Zaïnal
Concept & Development : Baudouin d'Aumeries
Co-Development & Prog : Marc-Olivier Méhu
Technical & hardware support : Manuel Goepfert

Contact : metmap@orbifly.com




SOURCES & CREDITS :

   NOAA